LEZL/SVQ METAR and TAF weather

Enter ICAO airport designator
Station Type Date Time Source
LEZL METAR 2019/05/26 23:00 UTC NOAA

LEZL 262300Z 22008KT 180V250 CAVOK 22/13 Q1014 NOSIG


Station Type Date Time Source
LEZL Decoded METAR 2019/05/26 23:00 UTC NOAA

Sevilla / San Pablo, Spain (LEZL) 37-25N 005-54W 31M
May 26, 2019 - 07:00 PM EDT / 2019.05.26 2300 UTC
Wind: from the SW (220 degrees) at 9 MPH (8 KT) (direction variable):0
Visibility: greater than 7 mile(s):0
Temperature: 71 F (22 C)
Dew Point: 55 F (13 C)
Relative Humidity: 56%
Pressure (altimeter): 29.94 in. Hg (1014 hPa)
ob: LEZL 262300Z 22008KT 180V250 CAVOK 22/13 Q1014 NOSIG
cycle: 23

Station Type Date Time Source
LEZL TAF 2019/05/26 21:27 UTC NOAA

TAF LEZL 262000Z 2621/2721 23007KT CAVOK TX36/2715Z TN16/2705Z

Example: see airport list